Weather reports worldwide

Advertisment
Braemar, United Kingdom (99089): temperature & dewpoint: 17.01.2019 02:00:00 - 23.01.2019 02:00:00 (GMT)Braemar, United Kingdom (99089): temperature -20cm & temperature -100cm: 17.01.2019 02:00:00 - 23.01.2019 02:00:00 (GMT)Braemar, United Kingdom (99089): precipitation: 17.01.2019 02:00:00 - 23.01.2019 02:00:00 (GMT)
Date & Time tt [°C] td [°C] tt -20cm [°C] tt -100cm [°C] rr [mm]
23.01.2019 02:00:00 - - - - -
23.01.2019 01:00:00 -9,5 -10,6 - - 0,0
23.01.2019 00:00:00 -8,6 -9,5 - - 0,0
22.01.2019 23:00:00 -7,9 -8,9 - - 0,0
22.01.2019 22:00:00 -8,0 -8,9 - - 0,0
22.01.2019 21:00:00 -7,0 -7,7 - - 0,0
22.01.2019 20:00:00 -6,8 -8,1 - - 0,0
22.01.2019 19:00:00 -4,9 -6,8 - - 0,0
22.01.2019 18:00:00 -3,6 -5,5 - - 0,0
22.01.2019 17:00:00 -3,2 -5,6 - - 0,0
22.01.2019 16:00:00 -1,5 -4,5 - - 0,0
22.01.2019 15:00:00 0,2 -4,0 - - 0,0
22.01.2019 14:00:00 0,7 -3,7 - - 0,0
22.01.2019 13:00:00 -0,4 -4,2 - - 0,0
22.01.2019 12:00:00 -2,2 -4,6 - - 0,0
22.01.2019 11:00:00 -3,9 -6,2 - - 0,0
22.01.2019 10:00:00 -3,2 -4,6 - - 0,0
22.01.2019 09:00:00 -4,4 -6,4 1,7 3,7 0,0
22.01.2019 08:00:00 -2,8 -5,0 - - 0,0
22.01.2019 07:00:00 -1,5 -4,1 - - 0,0
22.01.2019 06:00:00 -1,2 -3,3 - - 0,0
22.01.2019 05:00:00 -0,1 -2,9 - - 0,0
22.01.2019 04:00:00 0,0 -1,6 - - 0,0
22.01.2019 03:00:00 0,0 -1,8 - - 0,0
22.01.2019 02:00:00 -0,3 -1,5 - - 0,0
22.01.2019 01:00:00 0,2 -0,7 - - 0,0
22.01.2019 00:00:00 0,4 -0,1 - - 0,2
21.01.2019 23:00:00 0,6 0,0 - - 0,2
21.01.2019 22:00:00 1,7 -0,3 - - 0,0
21.01.2019 21:00:00 1,2 0,1 - - 0,4
21.01.2019 20:00:00 1,2 0,1 - - 0,6
21.01.2019 19:00:00 1,2 -0,1 - - 0,0
21.01.2019 18:00:00 1,4 -0,5 - - 0,0
21.01.2019 17:00:00 1,6 -0,9 - - 0,2
21.01.2019 16:00:00 1,8 -1,2 - - 0,0
21.01.2019 15:00:00 1,7 -0,9 - - 0,0
21.01.2019 14:00:00 2,4 -1,3 - - 0,0
21.01.2019 13:00:00 2,5 -1,8 - - 0,0
21.01.2019 12:00:00 2,4 -1,7 - - 0,0
21.01.2019 11:00:00 2,4 -1,7 - - 0,0
21.01.2019 10:00:00 1,9 -1,4 - - 0,0
21.01.2019 09:00:00 -0,2 -2,0 1,7 4,0 0,0
21.01.2019 08:00:00 -4,2 -4,6 - - 0,0
21.01.2019 07:00:00 -4,6 -5,2 - - 0,0
21.01.2019 06:00:00 -5,7 -7,0 - - 0,0
21.01.2019 05:00:00 -4,2 -5,9 - - 0,0
21.01.2019 04:00:00 -4,3 -4,9 - - 0,0
21.01.2019 03:00:00 -5,8 -6,9 - - 0,0
21.01.2019 02:00:00 -4,4 -6,9 - - 0,0
21.01.2019 01:00:00 -4,2 -5,0 - - 0,0
21.01.2019 00:00:00 -3,6 -6,6 - - 0,0
20.01.2019 23:00:00 -0,8 -4,0 - - 0,0
20.01.2019 22:00:00 -1,4 -4,1 - - 0,0
20.01.2019 21:00:00 -1,3 -3,9 - - 0,0
20.01.2019 20:00:00 -2,0 -4,2 - - 0,0
20.01.2019 19:00:00 -1,9 -5,4 - - 0,0
20.01.2019 18:00:00 0,8 -5,0 - - 0,0
20.01.2019 17:00:00 2,2 -3,6 - - 0,0
20.01.2019 16:00:00 2,3 -2,5 - - 0,0
20.01.2019 15:00:00 2,9 -2,5 - - 1,6
20.01.2019 14:00:00 2,9 -0,9 - - 0,2
20.01.2019 13:00:00 2,7 -0,5 - - 0,0
20.01.2019 12:00:00 -1,9 -2,7 - - 0,0
20.01.2019 11:00:00 -3,5 -4,2 - - 0,0
20.01.2019 10:00:00 -4,9 -5,8 - - 0,0
20.01.2019 09:00:00 -6,3 -7,3 1,9 4,0 0,0
20.01.2019 08:00:00 -7,7 -9,1 - - 0,0
20.01.2019 07:00:00 -6,6 -7,8 - - 0,0
20.01.2019 06:00:00 -5,4 -6,3 - - 0,0
20.01.2019 05:00:00 -6,6 -7,4 - - 0,0
20.01.2019 04:00:00 -6,6 -7,1 - - 0,0
20.01.2019 03:00:00 -7,5 -8,6 - - 0,0
20.01.2019 02:00:00 -7,2 -8,1 - - 0,0
20.01.2019 01:00:00 -5,7 -6,4 - - 0,0
20.01.2019 00:00:00 -4,8 -5,4 - - 0,0
19.01.2019 23:00:00 -3,7 -4,4 - - 0,0
19.01.2019 22:00:00 -2,5 -2,9 - - 0,0
19.01.2019 21:00:00 -1,8 -2,1 - - 0,0
19.01.2019 20:00:00 -1,3 -1,8 - - 0,0
19.01.2019 19:00:00 -0,9 -1,5 - - 0,0
19.01.2019 18:00:00 -0,2 -0,9 - - 0,0
19.01.2019 17:00:00 0,2 -0,8 - - 0,0
19.01.2019 16:00:00 0,6 -0,7 - - 0,0
19.01.2019 15:00:00 0,8 -0,8 - - 0,0
19.01.2019 14:00:00 1,5 -1,2 - - 0,0
19.01.2019 13:00:00 2,0 -1,2 - - 0,0
19.01.2019 12:00:00 -0,3 -2,2 - - 0,0
19.01.2019 11:00:00 -2,2 -3,2 - - 0,0
19.01.2019 10:00:00 -3,9 -4,3 - - 0,0
19.01.2019 09:00:00 -5,0 -5,5 2,2 4,2 0,0
19.01.2019 08:00:00 -6,5 -7,4 - - 0,0
19.01.2019 07:00:00 -4,7 -5,0 - - 0,0
19.01.2019 06:00:00 -3,9 -4,2 - - 0,0
19.01.2019 05:00:00 -4,3 -4,8 - - 0,0
19.01.2019 04:00:00 -3,5 -3,8 - - 0,0
19.01.2019 03:00:00 -3,7 -4,3 - - 0,0
19.01.2019 02:00:00 -3,0 -3,8 - - 0,0
19.01.2019 01:00:00 -2,8 -3,5 - - 0,0
19.01.2019 00:00:00 -2,9 -3,6 - - 0,0
18.01.2019 23:00:00 -3,5 -4,3 - - 0,0
18.01.2019 22:00:00 -3,5 -4,7 - - 0,0
18.01.2019 21:00:00 -4,0 -5,1 - - 0,0
18.01.2019 20:00:00 -4,6 -5,3 - - 0,0
18.01.2019 19:00:00 -5,9 -6,6 - - 0,0
18.01.2019 18:00:00 -5,5 -5,8 - - 0,0
18.01.2019 17:00:00 -6,9 -7,5 - - 0,0
18.01.2019 16:00:00 -6,9 -7,7 - - 0,0
18.01.2019 15:00:00 -6,6 -8,3 - - 0,0
18.01.2019 14:00:00 -4,7 -7,6 - - 0,0
18.01.2019 13:00:00 -5,3 -7,1 - - 0,0
18.01.2019 12:00:00 -6,1 -8,2 - - 0,0
18.01.2019 11:00:00 -7,5 -8,6 - - 0,0
18.01.2019 10:00:00 -9,2 -10,0 - - 0,0
18.01.2019 09:00:00 -9,7 -10,7 2,7 4,4 0,0
18.01.2019 08:00:00 -10,0 -11,0 - - 0,0
18.01.2019 07:00:00 -10,1 -11,1 - - 0,0
18.01.2019 06:00:00 -9,2 -10,0 - - 0,0
18.01.2019 05:00:00 -8,8 -9,7 - - 0,0
18.01.2019 04:00:00 -8,2 -9,0 - - 0,0
18.01.2019 03:00:00 -7,7 -8,5 - - 0,0
18.01.2019 02:00:00 -6,1 -6,7 - - 0,0
18.01.2019 01:00:00 -6,1 -6,8 - - 0,0
18.01.2019 00:00:00 -6,2 -7,3 - - 0,0
17.01.2019 23:00:00 -6,8 -7,7 - - 0,0
17.01.2019 22:00:00 -5,8 -6,7 - - 0,0
17.01.2019 21:00:00 -4,7 -7,1 - - 0,0
17.01.2019 20:00:00 -3,6 -6,3 - - 0,0
17.01.2019 19:00:00 -2,5 -5,3 - - 0,0
17.01.2019 18:00:00 -1,5 -4,3 - - 0,0
17.01.2019 17:00:00 -0,7 -4,6 - - 0,0
17.01.2019 16:00:00 -0,7 -3,7 - - 0,0
17.01.2019 15:00:00 -0,1 -4,2 - - 0,0
17.01.2019 14:00:00 1,1 -3,7 - - 0,0
17.01.2019 13:00:00 1,1 -3,8 - - 0,0
17.01.2019 12:00:00 0,6 -2,9 - - 0,0
17.01.2019 11:00:00 0,2 -3,1 - - 0,0
17.01.2019 10:00:00 0,0 -3,2 - - 0,0
17.01.2019 09:00:00 -0,2 -3,3 3,5 4,4 0,0
17.01.2019 08:00:00 -0,2 -3,1 - - 0,0
17.01.2019 07:00:00 -0,4 -3,1 - - 0,0
17.01.2019 06:00:00 -0,5 -3,4 - - 0,0
17.01.2019 05:00:00 -0,2 -3,6 - - 0,0
17.01.2019 04:00:00 -0,3 -3,6 - - 0,0
17.01.2019 03:00:00 -0,3 -5,6 - - 0,0
17.01.2019 02:00:00 -1,1 -5,5 - - 0,0

tt = temperature
td = dewpoint
tt -20cm = temperature -20cm
tt -100cm = temperature -100cm
rr = precipitation

Next stations